Veroniki III — SY6044 — position and weather

sailwx.info

Track history (hours):
 
Tides and Currents Weather Stations Pressure Air Temp Water Temp Dewpoint Dewpoint Depression Visibility Wind Speed Wind Dir Waves Ship Positions

Veroniki III

Last reported at 2017-Sep-21 00:00 UTC. Time now 2017-Sep-22 17:19 UTC.
Position N 37°31' E 023°35'.

Length 51 m; draft 3.5 m.

Type: Tanker. MMSI: 240388000.

Date/timePositionNaut miles runAvg speedWind from/ knotsBaromVisibWave heightAir tempDewpointWater temp
2017-Sep-21 00:00N 37°31' E 023°35'510.4
2017-Sep-20 23:31N 37°36' E 023°32'5 9.2
2017-Sep-20 23:00N 37°39' E 023°28'5 9.9
2017-Sep-20 22:30N 37°40' E 023°22'6 9.1
2017-Sep-20 21:50N 37°44' E 023°16'1210.2
2017-Sep-20 20:37N 37°54' E 023°07'2 0.2
2017-Sep-20 09:34N 37°55' E 023°05'0 0.7
2017-Sep-20 09:17N 37°55' E 023°05'1 0.3
2017-Sep-20 07:38N 37°55' E 023°06'2 8.1
2017-Sep-20 07:25N 37°55' E 023°08'410.6
2017-Sep-20 07:00N 37°56' E 023°14'510.4
2017-Sep-20 06:30N 37°57' E 023°20'5 9.1
2017-Sep-20 06:00N 37°58' E 023°25'4 8.4
2017-Sep-20 05:30N 38°01' E 023°29'5 9.7
2017-Sep-20 05:00N 38°02' E 023°35'0 0.3
2017-Sep-20 04:30N 38°02' E 023°36'0 0.0
2017-Sep-20 04:00N 38°02' E 023°36'0 0.0
2017-Sep-20 03:30N 38°02' E 023°36'0 0.0
2017-Sep-20 03:00N 38°02' E 023°36'0 0.0
2017-Sep-20 02:30N 38°02' E 023°36'0 0.0
2017-Sep-20 02:00N 38°02' E 023°36'0 0.0
2017-Sep-20 01:30N 38°02' E 023°36'0 0.0
2017-Sep-20 01:00N 38°02' E 023°36'0 0.0
2017-Sep-20 00:30N 38°02' E 023°36'0 0.0
2017-Sep-20 00:00N 38°02' E 023°36'0 0.0
2017-Sep-19 23:30N 38°02' E 023°36'0 0.0
2017-Sep-19 23:00N 38°02' E 023°36'0 0.0
2017-Sep-19 22:30N 38°02' E 023°36'0 0.0
2017-Sep-19 22:00N 38°02' E 023°36'0 0.0
2017-Sep-19 21:30N 38°02' E 023°36'0 0.0
2017-Sep-19 21:00N 38°02' E 023°36'0 0.0
2017-Sep-19 20:30N 38°02' E 023°36'0 0.0
2017-Sep-19 20:00N 38°02' E 023°36'0 0.0
2017-Sep-19 19:30N 38°02' E 023°36'0 0.0
2017-Sep-19 19:00N 38°02' E 023°36'0 0.0
2017-Sep-19 18:30N 38°02' E 023°36'0 0.0
2017-Sep-19 18:00N 38°02' E 023°36'0 0.0
2017-Sep-19 17:30N 38°02' E 023°36'0 0.0
2017-Sep-19 17:00N 38°02' E 023°36'0 0.0
2017-Sep-19 16:30N 38°02' E 023°36'0 0.0
2017-Sep-19 16:01N 38°02' E 023°36'0 0.0
2017-Sep-19 15:30N 38°02' E 023°36'0 0.0
2017-Sep-19 15:00N 38°02' E 023°36'0 0.0
2017-Sep-19 14:30N 38°02' E 023°36'0 0.0
2017-Sep-19 14:00N 38°02' E 023°36'0 0.0
2017-Sep-19 13:30N 38°02' E 023°36'0 0.0
2017-Sep-19 13:00N 38°02' E 023°36'0 0.0
2017-Sep-19 12:30N 38°02' E 023°36'0 0.0
2017-Sep-19 12:01N 38°02' E 023°36'0 0.0
2017-Sep-19 11:30N 38°02' E 023°36'0 0.0
2017-Sep-19 11:01N 38°02' E 023°36'0 0.0
2017-Sep-19 10:31N 38°02' E 023°36'0 0.0
2017-Sep-19 10:00N 38°02' E 023°36'0 0.0
2017-Sep-19 09:30N 38°02' E 023°36'0 0.0
2017-Sep-19 09:00N 38°02' E 023°36'0 0.0
2017-Sep-19 08:31N 38°02' E 023°36'0 0.0
2017-Sep-19 08:00N 38°02' E 023°36'0 0.0
2017-Sep-19 07:30N 38°02' E 023°36'0 0.0
2017-Sep-19 07:00N 38°02' E 023°36'0 0.0
2017-Sep-19 06:30N 38°02' E 023°36'0 0.0
2017-Sep-19 06:00N 38°02' E 023°36'3 7.0
2017-Sep-19 05:30N 37°59' E 023°33'4 7.3
2017-Sep-19 05:00N 37°56' E 023°34'1 1.1
2017-Sep-19 04:31N 37°55' E 023°34'0 0.1
2017-Sep-19 04:00N 37°55' E 023°34'0 0.1
2017-Sep-19 03:31N 37°55' E 023°34'0 0.1
2017-Sep-19 03:00N 37°55' E 023°34'0 0.0
2017-Sep-19 02:30N 37°55' E 023°34'0 0.0
2017-Sep-19 02:00N 37°55' E 023°34'0 0.0
2017-Sep-19 01:30N 37°55' E 023°34'0 0.0
2017-Sep-19 01:00N 37°55' E 023°34'0 0.0
2017-Sep-19 00:31N 37°55' E 023°34'0 0.0
2017-Sep-19 00:00N 37°55' E 023°34'0 0.0
2017-Sep-18 23:30N 37°55' E 023°34'0 0.0
2017-Sep-18 23:00N 37°55' E 023°34'0 0.0
2017-Sep-18 22:30N 37°55' E 023°34'0 0.0
2017-Sep-18 22:00N 37°55' E 023°34'0 0.0
2017-Sep-18 21:30N 37°55' E 023°34'0 0.0
2017-Sep-18 21:00N 37°55' E 023°34'0 0.0
2017-Sep-18 20:31N 37°55' E 023°34'0 0.0
2017-Sep-18 20:01N 37°55' E 023°34'0 0.1
2017-Sep-18 19:30N 37°55' E 023°34'0 0.1
2017-Sep-18 19:01N 37°55' E 023°34'0 0.1
2017-Sep-18 18:30N 37°55' E 023°34'4 7.4
2017-Sep-18 18:00N 37°53' E 023°37'510.6
2017-Sep-18 17:30N 37°48' E 023°40'510.5
2017-Sep-18 17:01N 37°43' E 023°43'510.2
2017-Sep-18 16:31N 37°39' E 023°47'510.4
2017-Sep-18 16:01N 37°36' E 023°52'510.3
2017-Sep-18 15:30N 37°33' E 023°58'  
2017-Sep-16 08:17N 37°10' E 025°48'3 9.9
2017-Sep-16 08:00N 37°11' E 025°44'12 9.9
2017-Sep-16 06:51N 37°13' E 025°30'3 9.3
2017-Sep-16 06:30N 37°14' E 025°26'5 9.4
2017-Sep-16 06:00N 37°15' E 025°21'5 9.7
2017-Sep-16 05:30N 37°16' E 025°15'5 9.8
2017-Sep-16 05:01N 37°17' E 025°09'5 9.7
2017-Sep-16 04:30N 37°18' E 025°03'510.2
2017-Sep-16 04:00N 37°20' E 024°57'510.0
2017-Sep-16 03:30N 37°21' E 024°51'510.2
2017-Sep-16 03:00N 37°23' E 024°45'4110.3
2017-Sep-15 23:00N 37°36' E 023°55'510.0
2017-Sep-15 22:31N 37°38' E 023°50'510.1
2017-Sep-15 22:00N 37°40' E 023°44'5 9.7
2017-Sep-15 21:30N 37°44' E 023°40'5 9.9
2017-Sep-15 21:00N 37°48' E 023°38'5 9.6
2017-Sep-15 20:31N 37°50' E 023°32'5 9.9
2017-Sep-15 20:00N 37°52' E 023°26'4 8.7
2017-Sep-15 19:30N 37°55' E 023°23'4 8.2
2017-Sep-15 19:00N 37°59' E 023°25'5 9.9
2017-Sep-15 18:30N 38°02' E 023°31'0 0.9
2017-Sep-15 18:01N 38°02' E 023°31'0 0.0
2017-Sep-15 17:30N 38°02' E 023°31'0 0.0
2017-Sep-15 17:00N 38°02' E 023°31'0 0.0
2017-Sep-15 16:30N 38°02' E 023°31'0 0.0
2017-Sep-15 16:00N 38°02' E 023°31'0 0.0
2017-Sep-15 15:30N 38°02' E 023°31'0 0.0
2017-Sep-15 15:00N 38°02' E 023°31'0 0.0
2017-Sep-15 14:30N 38°02' E 023°31'0 0.0
2017-Sep-15 14:01N 38°02' E 023°31'0 0.0
2017-Sep-15 13:30N 38°02' E 023°31'0 0.0
2017-Sep-15 13:00N 38°02' E 023°31'3 6.5
2017-Sep-15 12:30N 38°02' E 023°35'1 1.7
2017-Sep-15 12:00N 38°02' E 023°36'0 0.0
2017-Sep-15 11:30N 38°02' E 023°36'0 0.0
2017-Sep-15 11:00N 38°02' E 023°36'0 0.0
2017-Sep-15 10:31N 38°02' E 023°36'0 0.0
2017-Sep-15 10:00N 38°02' E 023°36'0 0.0
2017-Sep-15 09:30N 38°02' E 023°36'0 0.0
2017-Sep-15 09:00N 38°02' E 023°36'0 0.0
2017-Sep-15 08:30N 38°02' E 023°36'0 0.0
2017-Sep-15 08:00N 38°02' E 023°36'0 0.0
2017-Sep-15 07:31N 38°02' E 023°36'0 0.0
2017-Sep-15 07:01N 38°02' E 023°36'0 0.0
2017-Sep-15 06:30N 38°02' E 023°36'0 0.0
2017-Sep-15 06:00N 38°02' E 023°36'0 0.0
2017-Sep-15 05:30N 38°02' E 023°36'4 8.2
2017-Sep-15 05:00N 37°58' E 023°33'3 6.0
2017-Sep-15 04:30N 37°56' E 023°34'1 1.9
2017-Sep-15 04:00N 37°56' E 023°33'0 0.0
2017-Sep-15 03:31N 37°56' E 023°33'0 0.0
2017-Sep-15 03:00N 37°56' E 023°33'0 0.0
2017-Sep-15 02:30N 37°56' E 023°33'0 0.0
2017-Sep-15 02:00N 37°56' E 023°33'0 0.0
2017-Sep-15 01:30N 37°56' E 023°33'0 0.0
2017-Sep-15 01:01N 37°56' E 023°33'0 0.0
2017-Sep-15 00:31N 37°56' E 023°33'0 0.0
2017-Sep-15 00:00N 37°56' E 023°33'1 2.6
2017-Sep-14 23:31N 37°55' E 023°35'510.1
2017-Sep-14 23:01N 37°51' E 023°39'510.0
2017-Sep-14 22:31N 37°47' E 023°42'510.2
2017-Sep-14 22:00N 37°42' E 023°44'810.5
2017-Sep-14 21:11N 37°34' E 023°46'210.7
2017-Sep-14 21:00N 37°32' E 023°46'510.8
2017-Sep-14 20:30N 37°26' E 023°47'610.8
2017-Sep-14 19:59N 37°21' E 023°48'611.3
2017-Sep-14 19:30N 37°15' E 023°49'23 0.5
2017-Sep-12 22:51N 37°38' E 023°43'410.3
2017-Sep-12 22:29N 37°41' E 023°41'510.3
2017-Sep-12 22:00N 37°46' E 023°39'5 9.8
2017-Sep-12 21:31N 37°50' E 023°35'510.3
2017-Sep-12 21:00N 37°51' E 023°29'510.2
2017-Sep-12 20:30N 37°53' E 023°23'5 9.2
2017-Sep-12 20:00N 37°58' E 023°25'3 6.8
2017-Sep-12 19:30N 38°00' E 023°28'3 5.5
2017-Sep-12 19:00N 38°02' E 023°31'0 0.0
2017-Sep-12 18:30N 38°02' E 023°31'0 0.0
2017-Sep-12 18:00N 38°02' E 023°31'0 0.0
2017-Sep-12 17:30N 38°02' E 023°31'0 0.0
2017-Sep-12 17:00N 38°02' E 023°31'0 0.0
2017-Sep-12 16:30N 38°02' E 023°31'0 0.0
2017-Sep-12 16:00N 38°02' E 023°31'0 0.0
2017-Sep-12 15:30N 38°02' E 023°31'0 0.0
2017-Sep-12 15:00N 38°02' E 023°31'0 0.0
2017-Sep-12 14:30N 38°02' E 023°31'0 0.0
2017-Sep-12 14:00N 38°02' E 023°31'0 0.0
2017-Sep-12 13:30N 38°02' E 023°31'0 0.0
2017-Sep-12 13:00N 38°02' E 023°31'0 0.0
2017-Sep-12 12:30N 38°02' E 023°31'0 0.0
2017-Sep-12 12:00N 38°02' E 023°31'0 0.0
2017-Sep-12 11:30N 38°02' E 023°31'0 0.0
2017-Sep-12 11:00N 38°02' E 023°31'0 0.5
2017-Sep-12 10:30N 38°02' E 023°31'2 5.0
2017-Sep-12 10:00N 38°01' E 023°34'2 3.2
2017-Sep-12 09:30N 38°02' E 023°36'0 0.0
2017-Sep-12 09:00N 38°02' E 023°36'0 0.0
2017-Sep-12 08:30N 38°02' E 023°36'0 0.0
2017-Sep-12 08:00N 38°02' E 023°36'0 0.0
2017-Sep-12 07:30N 38°02' E 023°36'0 0.0
2017-Sep-12 07:00N 38°02' E 023°36'0 0.0
2017-Sep-12 06:30N 38°02' E 023°36'0 0.0
2017-Sep-12 06:01N 38°02' E 023°36'0 0.0
2017-Sep-12 05:31N 38°02' E 023°36'0 0.0
2017-Sep-12 05:00N 38°02' E 023°36'0 0.0
2017-Sep-12 04:30N 38°02' E 023°36'0 0.0
2017-Sep-12 04:01N 38°02' E 023°36'0 0.0
2017-Sep-12 03:30N 38°02' E 023°36'0 0.0
2017-Sep-12 03:00N 38°02' E 023°36'0 0.0
2017-Sep-12 02:30N 38°02' E 023°36'0 0.0
2017-Sep-12 02:00N 38°02' E 023°36'0 0.0
2017-Sep-12 01:30N 38°02' E 023°36'0 0.0
2017-Sep-12 01:00N 38°02' E 023°36'0 0.0
2017-Sep-12 00:30N 38°02' E 023°36'0 0.0
2017-Sep-12 00:00N 38°02' E 023°36'0 0.0
2017-Sep-11 23:31N 38°02' E 023°36'0 0.0
2017-Sep-11 23:01N 38°02' E 023°36'0 0.0
2017-Sep-11 22:30N 38°02' E 023°36'0 0.0
2017-Sep-11 22:01N 38°02' E 023°36'0 0.0
2017-Sep-11 21:30N 38°02' E 023°36'0 0.0
2017-Sep-11 21:00N 38°02' E 023°36'0 0.0
2017-Sep-11 20:30N 38°02' E 023°36'0 0.0
2017-Sep-11 20:00N 38°02' E 023°36'0 0.0
2017-Sep-11 19:30N 38°02' E 023°36'0 0.0
2017-Sep-11 19:00N 38°02' E 023°36'0 0.0
2017-Sep-11 18:30N 38°02' E 023°36'0 0.0
2017-Sep-11 18:00N 38°02' E 023°36'0 0.0
2017-Sep-11 17:30N 38°02' E 023°36'0 0.0
2017-Sep-11 17:00N 38°02' E 023°36'0 0.0
2017-Sep-11 16:30N 38°02' E 023°36'0 0.0
2017-Sep-11 16:00N 38°02' E 023°36'0 0.0
2017-Sep-11 15:30N 38°02' E 023°36'0 0.0
2017-Sep-11 15:00N 38°02' E 023°36'0 0.0
2017-Sep-11 14:30N 38°02' E 023°36'0 0.0
2017-Sep-11 14:00N 38°02' E 023°36'0 0.0
2017-Sep-11 13:30N 38°02' E 023°36'0 0.0
2017-Sep-11 13:00N 38°02' E 023°36'0 0.0
2017-Sep-11 12:31N 38°02' E 023°36'0 0.0
2017-Sep-11 12:00N 38°02' E 023°36'0 0.0
2017-Sep-11 11:31N 38°02' E 023°36'0 0.0
2017-Sep-11 11:01N 38°02' E 023°36'0 0.0
2017-Sep-11 10:30N 38°02' E 023°36'0 0.0
2017-Sep-11 10:01N 38°02' E 023°36'0 0.0
2017-Sep-11 09:30N 38°02' E 023°36'0 0.0
2017-Sep-11 09:00N 38°02' E 023°36'0 0.0
2017-Sep-11 08:30N 38°02' E 023°36'0 0.0
2017-Sep-11 08:00N 38°02' E 023°36'0 0.0
2017-Sep-11 07:30N 38°02' E 023°36'0 0.0
2017-Sep-11 07:01N 38°02' E 023°36'0 0.0
2017-Sep-11 06:30N 38°02' E 023°36'0 0.0
2017-Sep-11 06:00N 38°02' E 023°36'0 0.0
2017-Sep-11 05:30N 38°02' E 023°36'0 0.0
2017-Sep-11 05:00N 38°02' E 023°36'0 0.0
2017-Sep-11 04:30N 38°02' E 023°36'0 0.0
2017-Sep-11 04:00N 38°02' E 023°36'  
Track history (hours):
 
Tides and Currents Weather Stations Pressure Air Temp Water Temp Dewpoint Dewpoint Depression Visibility Wind Speed Wind Dir Waves Ship Positions

Veroniki III

Last reported at 2017-Sep-21 00:00 UTC. Time now 2017-Sep-22 17:19 UTC.
Position N 37°31' E 023°35'.

Length 51 m; draft 3.5 m.

Type: Tanker. MMSI: 240388000.

Date/timePositionNaut miles runAvg speedWind from/ knotsBaromVisibWave heightAir tempDewpointWater temp
2017-Sep-21 00:00N 37°31' E 023°35'510.4
2017-Sep-20 23:31N 37°36' E 023°32'5 9.2
2017-Sep-20 23:00N 37°39' E 023°28'5 9.9
2017-Sep-20 22:30N 37°40' E 023°22'6 9.1
2017-Sep-20 21:50N 37°44' E 023°16'1210.2
2017-Sep-20 20:37N 37°54' E 023°07'2 0.2
2017-Sep-20 09:34N 37°55' E 023°05'0 0.7
2017-Sep-20 09:17N 37°55' E 023°05'1 0.3
2017-Sep-20 07:38N 37°55' E 023°06'2 8.1
2017-Sep-20 07:25N 37°55' E 023°08'410.6
2017-Sep-20 07:00N 37°56' E 023°14'510.4
2017-Sep-20 06:30N 37°57' E 023°20'5 9.1
2017-Sep-20 06:00N 37°58' E 023°25'4 8.4
2017-Sep-20 05:30N 38°01' E 023°29'5 9.7
2017-Sep-20 05:00N 38°02' E 023°35'0 0.3
2017-Sep-20 04:30N 38°02' E 023°36'0 0.0
2017-Sep-20 04:00N 38°02' E 023°36'0 0.0
2017-Sep-20 03:30N 38°02' E 023°36'0 0.0
2017-Sep-20 03:00N 38°02' E 023°36'0 0.0
2017-Sep-20 02:30N 38°02' E 023°36'0 0.0
2017-Sep-20 02:00N 38°02' E 023°36'0 0.0
2017-Sep-20 01:30N 38°02' E 023°36'0 0.0
2017-Sep-20 01:00N 38°02' E 023°36'0 0.0
2017-Sep-20 00:30N 38°02' E 023°36'0 0.0
2017-Sep-20 00:00N 38°02' E 023°36'0 0.0
2017-Sep-19 23:30N 38°02' E 023°36'0 0.0
2017-Sep-19 23:00N 38°02' E 023°36'0 0.0
2017-Sep-19 22:30N 38°02' E 023°36'0 0.0
2017-Sep-19 22:00N 38°02' E 023°36'0 0.0
2017-Sep-19 21:30N 38°02' E 023°36'0 0.0
2017-Sep-19 21:00N 38°02' E 023°36'0 0.0
2017-Sep-19 20:30N 38°02' E 023°36'0 0.0
2017-Sep-19 20:00N 38°02' E 023°36'0 0.0
2017-Sep-19 19:30N 38°02' E 023°36'0 0.0
2017-Sep-19 19:00N 38°02' E 023°36'0 0.0
2017-Sep-19 18:30N 38°02' E 023°36'0 0.0
2017-Sep-19 18:00N 38°02' E 023°36'0 0.0
2017-Sep-19 17:30N 38°02' E 023°36'0 0.0
2017-Sep-19 17:00N 38°02' E 023°36'0 0.0
2017-Sep-19 16:30N 38°02' E 023°36'0 0.0
2017-Sep-19 16:01N 38°02' E 023°36'0 0.0
2017-Sep-19 15:30N 38°02' E 023°36'0 0.0
2017-Sep-19 15:00N 38°02' E 023°36'0 0.0
2017-Sep-19 14:30N 38°02' E 023°36'0 0.0
2017-Sep-19 14:00N 38°02' E 023°36'0 0.0
2017-Sep-19 13:30N 38°02' E 023°36'0 0.0
2017-Sep-19 13:00N 38°02' E 023°36'0 0.0
2017-Sep-19 12:30N 38°02' E 023°36'0 0.0
2017-Sep-19 12:01N 38°02' E 023°36'0 0.0
2017-Sep-19 11:30N 38°02' E 023°36'0 0.0
2017-Sep-19 11:01N 38°02' E 023°36'0 0.0
2017-Sep-19 10:31N 38°02' E 023°36'0 0.0
2017-Sep-19 10:00N 38°02' E 023°36'0 0.0
2017-Sep-19 09:30N 38°02' E 023°36'0 0.0
2017-Sep-19 09:00N 38°02' E 023°36'0 0.0
2017-Sep-19 08:31N 38°02' E 023°36'0 0.0
2017-Sep-19 08:00N 38°02' E 023°36'0 0.0
2017-Sep-19 07:30N 38°02' E 023°36'0 0.0
2017-Sep-19 07:00N 38°02' E 023°36'0 0.0
2017-Sep-19 06:30N 38°02' E 023°36'0 0.0
2017-Sep-19 06:00N 38°02' E 023°36'3 7.0
2017-Sep-19 05:30N 37°59' E 023°33'4 7.3
2017-Sep-19 05:00N 37°56' E 023°34'1 1.1
2017-Sep-19 04:31N 37°55' E 023°34'0 0.1
2017-Sep-19 04:00N 37°55' E 023°34'0 0.1
2017-Sep-19 03:31N 37°55' E 023°34'0 0.1
2017-Sep-19 03:00N 37°55' E 023°34'0 0.0
2017-Sep-19 02:30N 37°55' E 023°34'0 0.0
2017-Sep-19 02:00N 37°55' E 023°34'0 0.0
2017-Sep-19 01:30N 37°55' E 023°34'0 0.0
2017-Sep-19 01:00N 37°55' E 023°34'0 0.0
2017-Sep-19 00:31N 37°55' E 023°34'0 0.0
2017-Sep-19 00:00N 37°55' E 023°34'0 0.0
2017-Sep-18 23:30N 37°55' E 023°34'0 0.0
2017-Sep-18 23:00N 37°55' E 023°34'0 0.0
2017-Sep-18 22:30N 37°55' E 023°34'0 0.0
2017-Sep-18 22:00N 37°55' E 023°34'0 0.0
2017-Sep-18 21:30N 37°55' E 023°34'0 0.0
2017-Sep-18 21:00N 37°55' E 023°34'0 0.0
2017-Sep-18 20:31N 37°55' E 023°34'0 0.0
2017-Sep-18 20:01N 37°55' E 023°34'0 0.1
2017-Sep-18 19:30N 37°55' E 023°34'0 0.1
2017-Sep-18 19:01N 37°55' E 023°34'0 0.1
2017-Sep-18 18:30N 37°55' E 023°34'4 7.4
2017-Sep-18 18:00N 37°53' E 023°37'510.6
2017-Sep-18 17:30N 37°48' E 023°40'510.5
2017-Sep-18 17:01N 37°43' E 023°43'510.2
2017-Sep-18 16:31N 37°39' E 023°47'510.4
2017-Sep-18 16:01N 37°36' E 023°52'510.3
2017-Sep-18 15:30N 37°33' E 023°58'  
2017-Sep-16 08:17N 37°10' E 025°48'3 9.9
2017-Sep-16 08:00N 37°11' E 025°44'12 9.9
2017-Sep-16 06:51N 37°13' E 025°30'3 9.3
2017-Sep-16 06:30N 37°14' E 025°26'5 9.4
2017-Sep-16 06:00N 37°15' E 025°21'5 9.7
2017-Sep-16 05:30N 37°16' E 025°15'5 9.8
2017-Sep-16 05:01N 37°17' E 025°09'5 9.7
2017-Sep-16 04:30N 37°18' E 025°03'510.2
2017-Sep-16 04:00N 37°20' E 024°57'510.0
2017-Sep-16 03:30N 37°21' E 024°51'510.2
2017-Sep-16 03:00N 37°23' E 024°45'4110.3
2017-Sep-15 23:00N 37°36' E 023°55'510.0
2017-Sep-15 22:31N 37°38' E 023°50'510.1
2017-Sep-15 22:00N 37°40' E 023°44'5 9.7
2017-Sep-15 21:30N 37°44' E 023°40'5 9.9
2017-Sep-15 21:00N 37°48' E 023°38'5 9.6
2017-Sep-15 20:31N 37°50' E 023°32'5 9.9
2017-Sep-15 20:00N 37°52' E 023°26'4 8.7
2017-Sep-15 19:30N 37°55' E 023°23'4 8.2
2017-Sep-15 19:00N 37°59' E 023°25'5 9.9
2017-Sep-15 18:30N 38°02' E 023°31'0 0.9
2017-Sep-15 18:01N 38°02' E 023°31'0 0.0
2017-Sep-15 17:30N 38°02' E 023°31'0 0.0
2017-Sep-15 17:00N 38°02' E 023°31'0 0.0
2017-Sep-15 16:30N 38°02' E 023°31'0 0.0
2017-Sep-15 16:00N 38°02' E 023°31'0 0.0
2017-Sep-15 15:30N 38°02' E 023°31'0 0.0
2017-Sep-15 15:00N 38°02' E 023°31'0 0.0
2017-Sep-15 14:30N 38°02' E 023°31'0 0.0
2017-Sep-15 14:01N 38°02' E 023°31'0 0.0
2017-Sep-15 13:30N 38°02' E 023°31'0 0.0
2017-Sep-15 13:00N 38°02' E 023°31'3 6.5
2017-Sep-15 12:30N 38°02' E 023°35'1 1.7
2017-Sep-15 12:00N 38°02' E 023°36'0 0.0
2017-Sep-15 11:30N 38°02' E 023°36'0 0.0
2017-Sep-15 11:00N 38°02' E 023°36'0 0.0
2017-Sep-15 10:31N 38°02' E 023°36'0 0.0
2017-Sep-15 10:00N 38°02' E 023°36'0 0.0
2017-Sep-15 09:30N 38°02' E 023°36'0 0.0
2017-Sep-15 09:00N 38°02' E 023°36'0 0.0
2017-Sep-15 08:30N 38°02' E 023°36'0 0.0
2017-Sep-15 08:00N 38°02' E 023°36'0 0.0
2017-Sep-15 07:31N 38°02' E 023°36'0 0.0
2017-Sep-15 07:01N 38°02' E 023°36'0 0.0
2017-Sep-15 06:30N 38°02' E 023°36'0 0.0
2017-Sep-15 06:00N 38°02' E 023°36'0 0.0
2017-Sep-15 05:30N 38°02' E 023°36'4 8.2
2017-Sep-15 05:00N 37°58' E 023°33'3 6.0
2017-Sep-15 04:30N 37°56' E 023°34'1 1.9
2017-Sep-15 04:00N 37°56' E 023°33'0 0.0
2017-Sep-15 03:31N 37°56' E 023°33'0 0.0
2017-Sep-15 03:00N 37°56' E 023°33'0 0.0
2017-Sep-15 02:30N 37°56' E 023°33'0 0.0
2017-Sep-15 02:00N 37°56' E 023°33'0 0.0
2017-Sep-15 01:30N 37°56' E 023°33'0 0.0
2017-Sep-15 01:01N 37°56' E 023°33'0 0.0
2017-Sep-15 00:31N 37°56' E 023°33'0 0.0
2017-Sep-15 00:00N 37°56' E 023°33'1 2.6
2017-Sep-14 23:31N 37°55' E 023°35'510.1
2017-Sep-14 23:01N 37°51' E 023°39'510.0
2017-Sep-14 22:31N 37°47' E 023°42'510.2
2017-Sep-14 22:00N 37°42' E 023°44'810.5
2017-Sep-14 21:11N 37°34' E 023°46'210.7
2017-Sep-14 21:00N 37°32' E 023°46'510.8
2017-Sep-14 20:30N 37°26' E 023°47'610.8
2017-Sep-14 19:59N 37°21' E 023°48'611.3
2017-Sep-14 19:30N 37°15' E 023°49'23 0.5
2017-Sep-12 22:51N 37°38' E 023°43'410.3
2017-Sep-12 22:29N 37°41' E 023°41'510.3
2017-Sep-12 22:00N 37°46' E 023°39'5 9.8
2017-Sep-12 21:31N 37°50' E 023°35'510.3
2017-Sep-12 21:00N 37°51' E 023°29'510.2
2017-Sep-12 20:30N 37°53' E 023°23'5 9.2
2017-Sep-12 20:00N 37°58' E 023°25'3 6.8
2017-Sep-12 19:30N 38°00' E 023°28'3 5.5
2017-Sep-12 19:00N 38°02' E 023°31'0 0.0
2017-Sep-12 18:30N 38°02' E 023°31'0 0.0
2017-Sep-12 18:00N 38°02' E 023°31'0 0.0
2017-Sep-12 17:30N 38°02' E 023°31'0 0.0
2017-Sep-12 17:00N 38°02' E 023°31'0 0.0
2017-Sep-12 16:30N 38°02' E 023°31'0 0.0
2017-Sep-12 16:00N 38°02' E 023°31'0 0.0
2017-Sep-12 15:30N 38°02' E 023°31'0 0.0
2017-Sep-12 15:00N 38°02' E 023°31'0 0.0
2017-Sep-12 14:30N 38°02' E 023°31'0 0.0
2017-Sep-12 14:00N 38°02' E 023°31'0 0.0
2017-Sep-12 13:30N 38°02' E 023°31'0 0.0
2017-Sep-12 13:00N 38°02' E 023°31'0 0.0
2017-Sep-12 12:30N 38°02' E 023°31'0 0.0
2017-Sep-12 12:00N 38°02' E 023°31'0 0.0
2017-Sep-12 11:30N 38°02' E 023°31'0 0.0
2017-Sep-12 11:00N 38°02' E 023°31'0 0.5
2017-Sep-12 10:30N 38°02' E 023°31'2 5.0
2017-Sep-12 10:00N 38°01' E 023°34'2 3.2
2017-Sep-12 09:30N 38°02' E 023°36'0 0.0
2017-Sep-12 09:00N 38°02' E 023°36'0 0.0
2017-Sep-12 08:30N 38°02' E 023°36'0 0.0
2017-Sep-12 08:00N 38°02' E 023°36'0 0.0
2017-Sep-12 07:30N 38°02' E 023°36'0 0.0
2017-Sep-12 07:00N 38°02' E 023°36'0 0.0
2017-Sep-12 06:30N 38°02' E 023°36'0 0.0
2017-Sep-12 06:01N 38°02' E 023°36'0 0.0
2017-Sep-12 05:31N 38°02' E 023°36'0 0.0
2017-Sep-12 05:00N 38°02' E 023°36'0 0.0
2017-Sep-12 04:30N 38°02' E 023°36'0 0.0
2017-Sep-12 04:01N 38°02' E 023°36'0 0.0
2017-Sep-12 03:30N 38°02' E 023°36'0 0.0
2017-Sep-12 03:00N 38°02' E 023°36'0 0.0
2017-Sep-12 02:30N 38°02' E 023°36'0 0.0
2017-Sep-12 02:00N 38°02' E 023°36'0 0.0
2017-Sep-12 01:30N 38°02' E 023°36'0 0.0
2017-Sep-12 01:00N 38°02' E 023°36'0 0.0
2017-Sep-12 00:30N 38°02' E 023°36'0 0.0
2017-Sep-12 00:00N 38°02' E 023°36'0 0.0
2017-Sep-11 23:31N 38°02' E 023°36'0 0.0
2017-Sep-11 23:01N 38°02' E 023°36'0 0.0
2017-Sep-11 22:30N 38°02' E 023°36'0 0.0
2017-Sep-11 22:01N 38°02' E 023°36'0 0.0
2017-Sep-11 21:30N 38°02' E 023°36'0 0.0
2017-Sep-11 21:00N 38°02' E 023°36'0 0.0
2017-Sep-11 20:30N 38°02' E 023°36'0 0.0
2017-Sep-11 20:00N 38°02' E 023°36'0 0.0
2017-Sep-11 19:30N 38°02' E 023°36'0 0.0
2017-Sep-11 19:00N 38°02' E 023°36'0 0.0
2017-Sep-11 18:30N 38°02' E 023°36'0 0.0
2017-Sep-11 18:00N 38°02' E 023°36'0 0.0
2017-Sep-11 17:30N 38°02' E 023°36'0 0.0
2017-Sep-11 17:00N 38°02' E 023°36'0 0.0
2017-Sep-11 16:30N 38°02' E 023°36'0 0.0
2017-Sep-11 16:00N 38°02' E 023°36'0 0.0
2017-Sep-11 15:30N 38°02' E 023°36'0 0.0
2017-Sep-11 15:00N 38°02' E 023°36'0 0.0
2017-Sep-11 14:30N 38°02' E 023°36'0 0.0
2017-Sep-11 14:00N 38°02' E 023°36'0 0.0
2017-Sep-11 13:30N 38°02' E 023°36'0 0.0
2017-Sep-11 13:00N 38°02' E 023°36'0 0.0
2017-Sep-11 12:31N 38°02' E 023°36'0 0.0
2017-Sep-11 12:00N 38°02' E 023°36'0 0.0
2017-Sep-11 11:31N 38°02' E 023°36'0 0.0
2017-Sep-11 11:01N 38°02' E 023°36'0 0.0
2017-Sep-11 10:30N 38°02' E 023°36'0 0.0
2017-Sep-11 10:01N 38°02' E 023°36'0 0.0
2017-Sep-11 09:30N 38°02' E 023°36'0 0.0
2017-Sep-11 09:00N 38°02' E 023°36'0 0.0
2017-Sep-11 08:30N 38°02' E 023°36'0 0.0
2017-Sep-11 08:00N 38°02' E 023°36'0 0.0
2017-Sep-11 07:30N 38°02' E 023°36'0 0.0
2017-Sep-11 07:01N 38°02' E 023°36'0 0.0
2017-Sep-11 06:30N 38°02' E 023°36'0 0.0
2017-Sep-11 06:00N 38°02' E 023°36'0 0.0
2017-Sep-11 05:30N 38°02' E 023°36'0 0.0
2017-Sep-11 05:00N 38°02' E 023°36'0 0.0
2017-Sep-11 04:30N 38°02' E 023°36'0 0.0
2017-Sep-11 04:00N 38°02' E 023°36'  

Dump ship's entire track history